Main page
METAR-TAF:

METAR-TAF

Airports :

Mariscal Lamar International Airport

Cuenca, Ecuador

latitude: 02-53-22S, longitude: 078-59-04W, elevation: 2532 m

Current weather observation

The report was made 33 minutes ago, at 03:00 UTC
Wind 5 kt from the East/Northeast, varying between Northeast and East
Temperature 15°C
Humidity 55%
Pressure 1028 hPa

METAR: SECU 150300Z AUTO 06005KT 040V100 ////NDV ////// 15/06 Q1028 A3036

Time: 22:33 (03:33 UTC)


TAF: missing

Weather observations and forecasts of more than 4000 airports (METAR and TAF reports).

The available stations are represented by yellow and red dots on the map.

Hover mouse over dot to see the name of the station.

Then click to see weather observations and forecasts.

To change the map : click on the green buttons with a black cross to zoom in, on the green button with a dash to zoom out, or on the green arrows for adjacent maps.


METAR-TAF: